sensor_id;sensor_type;location;lat;lon;timestamp;pressure;altitude;pressure_sealevel;temperature;humidity
35694;BME280;21812;55.536;37.664;2024-03-23T00:53:12;98857.53;;;7.62;49.66
35694;BME280;21812;55.536;37.664;2024-03-23T00:55:38;98850.63;;;7.46;51.08
35694;BME280;21812;55.536;37.664;2024-03-23T00:58:04;98850.44;;;7.48;50.25
35694;BME280;21812;55.536;37.664;2024-03-23T01:00:29;98833.72;;;7.54;50.82
35694;BME280;21812;55.536;37.664;2024-03-23T01:02:55;98808.03;;;7.61;50.00
35694;BME280;21812;55.536;37.664;2024-03-23T01:05:21;98840.13;;;7.88;52.12
35694;BME280;21812;55.536;37.664;2024-03-23T01:07:46;98834.03;;;7.94;50.32
35694;BME280;21812;55.536;37.664;2024-03-23T01:10:12;98832.00;;;8.31;51.61
35694;BME280;21812;55.536;37.664;2024-03-23T01:12:38;98818.94;;;8.36;48.89
35694;BME280;21812;55.536;37.664;2024-03-23T01:15:04;98817.41;;;8.13;49.94
35694;BME280;21812;55.536;37.664;2024-03-23T01:17:30;98808.50;;;8.41;50.23
35694;BME280;21812;55.536;37.664;2024-03-23T01:19:55;98818.53;;;8.39;49.03
35694;BME280;21812;55.536;37.664;2024-03-23T01:22:21;98811.13;;;7.93;49.28
35694;BME280;21812;55.536;37.664;2024-03-23T01:24:47;98816.19;;;7.88;50.18
35694;BME280;21812;55.536;37.664;2024-03-23T01:27:12;98799.84;;;7.56;51.96
35694;BME280;21812;55.536;37.664;2024-03-23T01:29:38;98800.44;;;7.86;51.39
35694;BME280;21812;55.536;37.664;2024-03-23T01:32:04;98802.63;;;8.11;50.01
35694;BME280;21812;55.536;37.664;2024-03-23T01:34:30;98796.13;;;8.13;49.98
35694;BME280;21812;55.536;37.664;2024-03-23T01:36:56;98796.31;;;8.53;50.80
35694;BME280;21812;55.536;37.664;2024-03-23T01:39:21;98785.91;;;8.17;52.93
35694;BME280;21812;55.536;37.664;2024-03-23T01:41:47;98782.41;;;8.16;53.07
35694;BME280;21812;55.536;37.664;2024-03-23T01:44:13;98778.34;;;8.20;52.85
35694;BME280;21812;55.536;37.664;2024-03-23T01:46:40;98772.63;;;7.82;50.63
35694;BME280;21812;55.536;37.664;2024-03-23T01:49:07;98777.28;;;7.73;54.03
35694;BME280;21812;55.536;37.664;2024-03-23T01:51:34;98758.09;;;8.26;54.66
35694;BME280;21812;55.536;37.664;2024-03-23T01:54:02;98773.44;;;8.79;52.27
35694;BME280;21812;55.536;37.664;2024-03-23T01:56:33;98759.34;;;9.12;50.66
35694;BME280;21812;55.536;37.664;2024-03-23T01:59:07;98756.09;;;9.10;49.26
35694;BME280;21812;55.536;37.664;2024-03-23T02:01:35;98763.47;;;9.41;48.83
35694;BME280;21812;55.536;37.664;2024-03-23T02:04:04;98755.66;;;8.93;48.48
35694;BME280;21812;55.536;37.664;2024-03-23T02:06:30;98749.22;;;8.47;49.65
35694;BME280;21812;55.536;37.664;2024-03-23T02:08:56;98739.03;;;8.57;51.14
35694;BME280;21812;55.536;37.664;2024-03-23T02:11:22;98736.63;;;9.03;51.85
35694;BME280;21812;55.536;37.664;2024-03-23T02:13:48;98747.47;;;8.26;50.31
35694;BME280;21812;55.536;37.664;2024-03-23T02:16:14;98740.34;;;8.27;51.81
35694;BME280;21812;55.536;37.664;2024-03-23T02:18:41;98731.69;;;8.73;51.89
35694;BME280;21812;55.536;37.664;2024-03-23T02:21:07;98702.03;;;9.03;50.25
35694;BME280;21812;55.536;37.664;2024-03-23T02:23:33;98721.84;;;8.73;51.17
35694;BME280;21812;55.536;37.664;2024-03-23T02:25:58;98724.34;;;8.82;53.31
35694;BME280;21812;55.536;37.664;2024-03-23T02:28:24;98720.22;;;8.72;51.48
35694;BME280;21812;55.536;37.664;2024-03-23T02:30:50;98717.94;;;8.49;51.38
35694;BME280;21812;55.536;37.664;2024-03-23T02:33:16;98716.63;;;8.38;53.71
35694;BME280;21812;55.536;37.664;2024-03-23T02:35:43;98688.75;;;8.21;52.91
35694;BME280;21812;55.536;37.664;2024-03-23T02:38:08;98687.03;;;8.55;51.17
35694;BME280;21812;55.536;37.664;2024-03-23T02:40:34;98698.31;;;8.84;50.11
35694;BME280;21812;55.536;37.664;2024-03-23T02:43:00;98671.03;;;8.48;50.48
35694;BME280;21812;55.536;37.664;2024-03-23T02:45:26;98689.91;;;8.67;50.76
35694;BME280;21812;55.536;37.664;2024-03-23T02:47:52;98671.06;;;8.61;53.16
35694;BME280;21812;55.536;37.664;2024-03-23T02:50:19;98650.19;;;8.85;51.74
35694;BME280;21812;55.536;37.664;2024-03-23T02:52:45;98665.13;;;9.26;50.29
35694;BME280;21812;55.536;37.664;2024-03-23T02:55:10;98659.09;;;9.64;50.29
35694;BME280;21812;55.536;37.664;2024-03-23T02:57:36;98652.81;;;9.97;50.70
35694;BME280;21812;55.536;37.664;2024-03-23T03:00:02;98656.53;;;9.96;48.74
35694;BME280;21812;55.536;37.664;2024-03-23T03:02:30;98645.78;;;9.57;47.75
35694;BME280;21812;55.536;37.664;2024-03-23T03:04:56;98653.81;;;9.51;50.16
35694;BME280;21812;55.536;37.664;2024-03-23T03:07:21;98646.06;;;9.29;48.75
35694;BME280;21812;55.536;37.664;2024-03-23T03:09:47;98640.13;;;9.20;51.21
35694;BME280;21812;55.536;37.664;2024-03-23T03:12:13;98638.25;;;9.34;51.75
35694;BME280;21812;55.536;37.664;2024-03-23T03:14:39;98633.69;;;9.55;50.23
35694;BME280;21812;55.536;37.664;2024-03-23T03:17:04;98631.84;;;10.07;48.05
35694;BME280;21812;55.536;37.664;2024-03-23T03:19:30;98601.38;;;10.22;46.99
35694;BME280;21812;55.536;37.664;2024-03-23T03:21:56;98615.84;;;10.07;47.54
35694;BME280;21812;55.536;37.664;2024-03-23T03:24:21;98611.97;;;9.51;49.33
35694;BME280;21812;55.536;37.664;2024-03-23T03:26:47;98607.44;;;9.52;51.16
35694;BME280;21812;55.536;37.664;2024-03-23T03:29:13;98605.88;;;9.37;48.77
35694;BME280;21812;55.536;37.664;2024-03-23T03:31:39;98605.09;;;9.17;49.23
35694;BME280;21812;55.536;37.664;2024-03-23T03:34:04;98604.72;;;9.07;50.78
35694;BME280;21812;55.536;37.664;2024-03-23T03:36:30;98598.50;;;9.39;50.32
35694;BME280;21812;55.536;37.664;2024-03-23T03:38:56;98601.38;;;9.31;48.76
35694;BME280;21812;55.536;37.664;2024-03-23T03:41:22;98588.97;;;8.65;49.67
35694;BME280;21812;55.536;37.664;2024-03-23T03:43:47;98584.25;;;8.47;53.93
35694;BME280;21812;55.536;37.664;2024-03-23T03:46:13;98583.44;;;8.47;54.66
35694;BME280;21812;55.536;37.664;2024-03-23T03:48:39;98575.06;;;8.43;53.00
35694;BME280;21812;55.536;37.664;2024-03-23T03:51:05;98569.13;;;8.48;51.49
35694;BME280;21812;55.536;37.664;2024-03-23T03:53:31;98579.16;;;8.59;51.24
35694;BME280;21812;55.536;37.664;2024-03-23T03:56:00;98583.03;;;8.56;53.02
35694;BME280;21812;55.536;37.664;2024-03-23T03:58:26;98579.72;;;8.34;51.83
35694;BME280;21812;55.536;37.664;2024-03-23T04:00:52;98570.56;;;8.50;51.48
35694;BME280;21812;55.536;37.664;2024-03-23T04:03:17;98562.16;;;8.47;51.40
35694;BME280;21812;55.536;37.664;2024-03-23T04:05:47;98568.72;;;8.44;51.68
35694;BME280;21812;55.536;37.664;2024-03-23T04:08:15;98562.50;;;7.97;53.14
35694;BME280;21812;55.536;37.664;2024-03-23T04:10:40;98571.38;;;7.56;54.69
35694;BME280;21812;55.536;37.664;2024-03-23T04:13:06;98561.38;;;7.58;55.54
35694;BME280;21812;55.536;37.664;2024-03-23T04:15:31;98531.84;;;8.08;57.03
35694;BME280;21812;55.536;37.664;2024-03-23T04:17:57;98553.50;;;7.98;53.37
35694;BME280;21812;55.536;37.664;2024-03-23T04:20:23;98549.41;;;8.02;53.04
35694;BME280;21812;55.536;37.664;2024-03-23T04:22:48;98536.31;;;7.94;54.52
35694;BME280;21812;55.536;37.664;2024-03-23T04:25:14;98545.19;;;7.53;56.30
35694;BME280;21812;55.536;37.664;2024-03-23T04:27:40;98538.19;;;7.38;55.28
35694;BME280;21812;55.536;37.664;2024-03-23T04:30:07;98533.66;;;8.07;57.23
35694;BME280;21812;55.536;37.664;2024-03-23T04:32:37;98533.47;;;8.15;54.58
35694;BME280;21812;55.536;37.664;2024-03-23T04:35:03;98528.34;;;8.34;54.53
35694;BME280;21812;55.536;37.664;2024-03-23T04:37:36;98524.88;;;8.00;53.35
35694;BME280;21812;55.536;37.664;2024-03-23T04:40:02;98512.16;;;7.82;54.09
35694;BME280;21812;55.536;37.664;2024-03-23T04:42:31;98498.00;;;7.55;57.34
35694;BME280;21812;55.536;37.664;2024-03-23T04:44:57;98500.09;;;7.79;56.98
35694;BME280;21812;55.536;37.664;2024-03-23T04:47:23;98513.31;;;7.59;55.48
35694;BME280;21812;55.536;37.664;2024-03-23T04:49:49;98502.19;;;8.04;57.41
35694;BME280;21812;55.536;37.664;2024-03-23T04:52:16;98497.06;;;8.16;54.79
35694;BME280;21812;55.536;37.664;2024-03-23T04:54:42;98487.84;;;7.98;54.73
35694;BME280;21812;55.536;37.664;2024-03-23T04:57:08;98490.00;;;7.41;55.54
35694;BME280;21812;55.536;37.664;2024-03-23T04:59:34;98493.53;;;7.62;57.11
35694;BME280;21812;55.536;37.664;2024-03-23T05:02:00;98492.75;;;7.95;56.48
35694;BME280;21812;55.536;37.664;2024-03-23T05:04:27;98488.06;;;7.90;55.54
35694;BME280;21812;55.536;37.664;2024-03-23T05:06:53;98484.78;;;7.81;57.43
35694;BME280;21812;55.536;37.664;2024-03-23T05:09:19;98486.41;;;7.82;56.77
35694;BME280;21812;55.536;37.664;2024-03-23T05:11:45;98482.34;;;8.27;57.64
35694;BME280;21812;55.536;37.664;2024-03-23T05:14:14;98480.72;;;8.46;56.88
35694;BME280;21812;55.536;37.664;2024-03-23T05:16:40;98479.69;;;8.13;57.05
35694;BME280;21812;55.536;37.664;2024-03-23T05:19:06;98473.69;;;7.64;57.49
35694;BME280;21812;55.536;37.664;2024-03-23T05:21:32;98484.09;;;7.53;57.73
35694;BME280;21812;55.536;37.664;2024-03-23T05:23:58;98489.34;;;7.33;58.87
35694;BME280;21812;55.536;37.664;2024-03-23T05:26:23;98485.09;;;7.45;59.61
35694;BME280;21812;55.536;37.664;2024-03-23T05:28:49;98481.56;;;7.18;59.31
35694;BME280;21812;55.536;37.664;2024-03-23T05:31:25;98476.25;;;6.83;59.40
35694;BME280;21812;55.536;37.664;2024-03-23T05:33:51;98457.19;;;7.01;61.86
35694;BME280;21812;55.536;37.664;2024-03-23T05:36:17;98463.28;;;7.63;59.44
35694;BME280;21812;55.536;37.664;2024-03-23T05:38:43;98464.56;;;8.14;57.19
35694;BME280;21812;55.536;37.664;2024-03-23T05:41:08;98454.72;;;7.88;57.02
35694;BME280;21812;55.536;37.664;2024-03-23T05:43:34;98447.16;;;8.25;60.06
35694;BME280;21812;55.536;37.664;2024-03-23T05:46:00;98447.13;;;8.58;56.95
35694;BME280;21812;55.536;37.664;2024-03-23T05:48:31;98456.09;;;8.77;56.21
35694;BME280;21812;55.536;37.664;2024-03-23T05:50:57;98434.41;;;8.80;55.45
35694;BME280;21812;55.536;37.664;2024-03-23T05:53:23;98440.16;;;8.70;57.55
35694;BME280;21812;55.536;37.664;2024-03-23T05:55:50;98450.41;;;8.67;57.04
35694;BME280;21812;55.536;37.664;2024-03-23T05:58:17;98435.09;;;7.89;58.12
35694;BME280;21812;55.536;37.664;2024-03-23T06:00:44;98445.44;;;7.30;60.81
35694;BME280;21812;55.536;37.664;2024-03-23T06:03:10;98436.13;;;6.99;61.04
35694;BME280;21812;55.536;37.664;2024-03-23T06:05:37;98447.28;;;6.81;62.78
35694;BME280;21812;55.536;37.664;2024-03-23T06:08:03;98442.13;;;7.15;62.62
35694;BME280;21812;55.536;37.664;2024-03-23T06:10:29;98432.41;;;7.55;61.71
35694;BME280;21812;55.536;37.664;2024-03-23T06:12:55;98424.88;;;7.99;61.46
35694;BME280;21812;55.536;37.664;2024-03-23T06:15:21;98422.63;;;8.02;59.38
35694;BME280;21812;55.536;37.664;2024-03-23T06:17:48;98427.13;;;8.02;59.50
35694;BME280;21812;55.536;37.664;2024-03-23T06:20:14;98400.94;;;8.12;59.86
35694;BME280;21812;55.536;37.664;2024-03-23T06:22:40;98409.91;;;8.38;61.15
35694;BME280;21812;55.536;37.664;2024-03-23T06:25:06;98418.06;;;8.56;59.75
35694;BME280;21812;55.536;37.664;2024-03-23T06:27:33;98412.28;;;8.73;58.14
35694;BME280;21812;55.536;37.664;2024-03-23T06:29:59;98385.75;;;8.46;59.62
35694;BME280;21812;55.536;37.664;2024-03-23T06:32:25;98405.44;;;7.98;59.95
35694;BME280;21812;55.536;37.664;2024-03-23T06:34:51;98415.69;;;7.81;60.97
35694;BME280;21812;55.536;37.664;2024-03-23T06:37:16;98397.91;;;7.89;61.05
35694;BME280;21812;55.536;37.664;2024-03-23T06:39:42;98397.69;;;8.03;60.27
35694;BME280;21812;55.536;37.664;2024-03-23T06:42:08;98408.09;;;8.05;60.42
35694;BME280;21812;55.536;37.664;2024-03-23T06:44:33;98404.22;;;7.88;60.80
35694;BME280;21812;55.536;37.664;2024-03-23T06:46:59;98411.19;;;7.75;62.19
35694;BME280;21812;55.536;37.664;2024-03-23T06:49:25;98391.34;;;7.58;62.03
35694;BME280;21812;55.536;37.664;2024-03-23T06:51:51;98388.44;;;7.33;61.92
35694;BME280;21812;55.536;37.664;2024-03-23T06:54:17;98405.75;;;7.15;62.47
35694;BME280;21812;55.536;37.664;2024-03-23T06:56:46;98394.25;;;6.88;63.80
35694;BME280;21812;55.536;37.664;2024-03-23T06:59:12;98377.09;;;6.91;65.62
35694;BME280;21812;55.536;37.664;2024-03-23T07:01:38;98379.78;;;6.97;66.01
35694;BME280;21812;55.536;37.664;2024-03-23T07:04:04;98377.63;;;7.34;65.18
35694;BME280;21812;55.536;37.664;2024-03-23T07:06:31;98369.06;;;7.59;62.45
35694;BME280;21812;55.536;37.664;2024-03-23T07:08:57;98370.69;;;7.47;62.77
35694;BME280;21812;55.536;37.664;2024-03-23T07:11:23;98369.06;;;7.39;66.00
35694;BME280;21812;55.536;37.664;2024-03-23T07:13:52;98373.50;;;7.25;65.31
35694;BME280;21812;55.536;37.664;2024-03-23T07:16:22;98355.19;;;7.50;68.65
35694;BME280;21812;55.536;37.664;2024-03-23T07:18:50;98355.78;;;7.92;66.24
35694;BME280;21812;55.536;37.664;2024-03-23T07:21:16;98358.22;;;7.67;64.99
35694;BME280;21812;55.536;37.664;2024-03-23T07:23:42;98351.91;;;7.55;66.40
35694;BME280;21812;55.536;37.664;2024-03-23T07:26:10;98355.16;;;7.43;65.10
35694;BME280;21812;55.536;37.664;2024-03-23T07:28:36;98354.94;;;7.78;72.64
35694;BME280;21812;55.536;37.664;2024-03-23T07:31:06;98342.47;;;7.99;73.10
35694;BME280;21812;55.536;37.664;2024-03-23T07:33:32;98359.06;;;7.68;66.76
35694;BME280;21812;55.536;37.664;2024-03-23T07:35:59;98347.19;;;7.83;73.34
35694;BME280;21812;55.536;37.664;2024-03-23T07:38:27;98327.16;;;7.61;67.06
35694;BME280;21812;55.536;37.664;2024-03-23T07:41:08;98318.19;;;7.62;69.01
35694;BME280;21812;55.536;37.664;2024-03-23T07:43:35;98345.31;;;8.04;67.48
35694;BME280;21812;55.536;37.664;2024-03-23T07:46:01;98349.22;;;7.95;65.17
35694;BME280;21812;55.536;37.664;2024-03-23T07:48:29;98340.66;;;7.79;64.84
35694;BME280;21812;55.536;37.664;2024-03-23T07:51:16;98349.03;;;7.70;66.96
35694;BME280;21812;55.536;37.664;2024-03-23T07:53:43;98346.78;;;7.60;68.27
35694;BME280;21812;55.536;37.664;2024-03-23T07:56:10;98352.91;;;7.54;65.48
35694;BME280;21812;55.536;37.664;2024-03-23T07:58:36;98333.28;;;7.28;66.29
35694;BME280;21812;55.536;37.664;2024-03-23T08:01:07;98300.34;;;7.02;67.15
35694;BME280;21812;55.536;37.664;2024-03-23T08:03:37;98320.63;;;7.30;70.37
35694;BME280;21812;55.536;37.664;2024-03-23T08:08:34;98325.97;;;7.50;65.79
35694;BME280;21812;55.536;37.664;2024-03-23T08:10:59;98331.44;;;7.69;69.85
35694;BME280;21812;55.536;37.664;2024-03-23T08:13:26;98287.31;;;7.34;68.10
35694;BME280;21812;55.536;37.664;2024-03-23T08:15:56;98331.03;;;7.65;70.75
35694;BME280;21812;55.536;37.664;2024-03-23T08:18:22;98333.06;;;7.96;66.89
35694;BME280;21812;55.536;37.664;2024-03-23T08:21:01;98259.94;;;7.60;69.41
35694;BME280;21812;55.536;37.664;2024-03-23T08:23:29;98323.47;;;7.89;67.18
35694;BME280;21812;55.536;37.664;2024-03-23T08:26:02;98327.75;;;7.90;69.95
35694;BME280;21812;55.536;37.664;2024-03-23T08:28:28;98324.88;;;8.11;67.60
35694;BME280;21812;55.536;37.664;2024-03-23T08:30:54;98314.66;;;8.01;68.22
35694;BME280;21812;55.536;37.664;2024-03-23T08:33:20;98312.22;;;7.93;66.61
35694;BME280;21812;55.536;37.664;2024-03-23T08:35:56;98317.50;;;8.13;68.42
35694;BME280;21812;55.536;37.664;2024-03-23T08:38:23;98315.00;;;8.18;69.35
35694;BME280;21812;55.536;37.664;2024-03-23T08:41:03;98314.41;;;8.16;67.47
35694;BME280;21812;55.536;37.664;2024-03-23T08:43:30;98299.97;;;7.92;65.97
35694;BME280;21812;55.536;37.664;2024-03-23T08:46:06;98304.41;;;8.12;67.94
35694;BME280;21812;55.536;37.664;2024-03-23T08:48:37;98306.47;;;8.03;66.71
35694;BME280;21812;55.536;37.664;2024-03-23T08:51:07;98305.25;;;7.99;66.78
35694;BME280;21812;55.536;37.664;2024-03-23T08:53:35;98260.75;;;7.61;66.64
35694;BME280;21812;55.536;37.664;2024-03-23T08:56:01;98302.19;;;8.02;70.05
35694;BME280;21812;55.536;37.664;2024-03-23T08:58:29;98302.41;;;7.80;66.39
35694;BME280;21812;55.536;37.664;2024-03-23T09:00:57;98314.31;;;7.58;65.93
35694;BME280;21812;55.536;37.664;2024-03-23T09:03:25;98301.03;;;7.31;67.94
35694;BME280;21812;55.536;37.664;2024-03-23T09:05:51;98278.97;;;7.24;69.52
35694;BME280;21812;55.536;37.664;2024-03-23T09:08:18;98286.91;;;7.77;70.15
35694;BME280;21812;55.536;37.664;2024-03-23T09:10:45;98288.53;;;7.52;66.73
35694;BME280;21812;55.536;37.664;2024-03-23T09:13:11;98280.56;;;7.38;70.67
35694;BME280;21812;55.536;37.664;2024-03-23T09:15:44;98296.75;;;7.37;68.59
35694;BME280;21812;55.536;37.664;2024-03-23T09:18:10;98279.16;;;7.36;70.97
35694;BME280;21812;55.536;37.664;2024-03-23T09:20:36;98268.94;;;7.19;70.02
35694;BME280;21812;55.536;37.664;2024-03-23T09:23:02;98277.31;;;7.30;69.85
35694;BME280;21812;55.536;37.664;2024-03-23T09:25:28;98282.00;;;7.21;69.09
35694;BME280;21812;55.536;37.664;2024-03-23T09:27:53;98267.13;;;7.33;71.38
35694;BME280;21812;55.536;37.664;2024-03-23T09:30:19;98255.06;;;7.24;72.23
35694;BME280;21812;55.536;37.664;2024-03-23T09:32:45;98268.13;;;7.26;70.37
35694;BME280;21812;55.536;37.664;2024-03-23T09:35:12;98261.19;;;7.31;70.67
35694;BME280;21812;55.536;37.664;2024-03-23T09:37:40;98257.94;;;7.42;69.77
35694;BME280;21812;55.536;37.664;2024-03-23T09:40:10;98255.25;;;7.56;69.56
35694;BME280;21812;55.536;37.664;2024-03-23T09:42:37;98257.47;;;7.72;68.79
35694;BME280;21812;55.536;37.664;2024-03-23T09:45:06;98202.31;;;7.48;67.83
35694;BME280;21812;55.536;37.664;2024-03-23T09:47:34;98243.97;;;7.74;67.78
35694;BME280;21812;55.536;37.664;2024-03-23T09:50:00;98252.31;;;7.91;67.47
35694;BME280;21812;55.536;37.664;2024-03-23T09:52:29;98222.31;;;7.70;68.25
35694;BME280;21812;55.536;37.664;2024-03-23T09:54:55;98264.31;;;8.07;70.37
35694;BME280;21812;55.536;37.664;2024-03-23T09:57:20;98252.53;;;7.96;68.18
35694;BME280;21812;55.536;37.664;2024-03-23T09:59:46;98259.53;;;7.77;67.13
35694;BME280;21812;55.536;37.664;2024-03-23T10:02:12;98263.22;;;7.69;67.09
35694;BME280;21812;55.536;37.664;2024-03-23T10:04:42;98262.19;;;7.77;70.03
35694;BME280;21812;55.536;37.664;2024-03-23T10:07:18;98221.97;;;7.47;67.84
35694;BME280;21812;55.536;37.664;2024-03-23T10:09:45;98249.47;;;7.86;68.33
35694;BME280;21812;55.536;37.664;2024-03-23T10:12:18;98250.50;;;7.78;67.77
35694;BME280;21812;55.536;37.664;2024-03-23T10:14:44;98245.63;;;7.55;67.80
35694;BME280;21812;55.536;37.664;2024-03-23T10:17:16;98246.84;;;7.59;70.04
35694;BME280;21812;55.536;37.664;2024-03-23T10:19:45;98235.44;;;7.38;68.42
35694;BME280;21812;55.536;37.664;2024-03-23T10:22:20;98229.31;;;7.24;69.38
35694;BME280;21812;55.536;37.664;2024-03-23T10:24:47;98232.19;;;7.23;71.15
35694;BME280;21812;55.536;37.664;2024-03-23T10:27:18;98244.44;;;7.37;70.28
35694;BME280;21812;55.536;37.664;2024-03-23T10:29:45;98222.13;;;7.72;71.49
35694;BME280;21812;55.536;37.664;2024-03-23T10:32:12;98215.56;;;7.74;70.36
35694;BME280;21812;55.536;37.664;2024-03-23T10:34:38;98202.06;;;7.76;68.74
35694;BME280;21812;55.536;37.664;2024-03-23T10:37:05;98218.41;;;7.79;67.77
35694;BME280;21812;55.536;37.664;2024-03-23T10:39:38;98216.16;;;7.76;69.72
35694;BME280;21812;55.536;37.664;2024-03-23T10:42:06;98212.31;;;7.59;68.96
35694;BME280;21812;55.536;37.664;2024-03-23T10:44:33;98217.63;;;7.66;68.96
35694;BME280;21812;55.536;37.664;2024-03-23T10:46:59;98219.59;;;7.97;68.75
35694;BME280;21812;55.536;37.664;2024-03-23T10:49:28;98206.88;;;8.06;70.72
35694;BME280;21812;55.536;37.664;2024-03-23T10:51:57;98210.03;;;8.28;68.33
35694;BME280;21812;55.536;37.664;2024-03-23T10:54:25;98214.41;;;8.09;66.73
35694;BME280;21812;55.536;37.664;2024-03-23T10:57:11;98220.34;;;8.17;67.58
35694;BME280;21812;55.536;37.664;2024-03-23T10:59:39;98207.53;;;7.88;67.58
35694;BME280;21812;55.536;37.664;2024-03-23T11:02:06;98201.78;;;8.04;68.17
35694;BME280;21812;55.536;37.664;2024-03-23T11:04:37;98201.53;;;8.12;68.51
35694;BME280;21812;55.536;37.664;2024-03-23T11:09:45;98187.69;;;7.97;66.87
35694;BME280;21812;55.536;37.664;2024-03-23T11:12:25;98197.41;;;8.16;67.95
35694;BME280;21812;55.536;37.664;2024-03-23T11:17:30;98181.41;;;7.85;68.52
35694;BME280;21812;55.536;37.664;2024-03-23T11:27:44;98207.09;;;8.04;68.82
35694;BME280;21812;55.536;37.664;2024-03-23T11:30:12;98170.38;;;7.74;67.84
35694;BME280;21812;55.536;37.664;2024-03-23T11:32:38;98183.72;;;7.61;68.56
35694;BME280;21812;55.536;37.664;2024-03-23T11:35:05;98174.09;;;7.67;68.76
35694;BME280;21812;55.536;37.664;2024-03-23T11:37:31;98155.13;;;7.50;67.89
35694;BME280;21812;55.536;37.664;2024-03-23T11:39:57;98171.00;;;7.76;70.12
35694;BME280;21812;55.536;37.664;2024-03-23T11:42:22;98172.69;;;7.64;68.91
35694;BME280;21812;55.536;37.664;2024-03-23T11:44:48;98179.03;;;7.56;68.99
35694;BME280;21812;55.536;37.664;2024-03-23T11:47:13;98172.13;;;7.35;69.41
35694;BME280;21812;55.536;37.664;2024-03-23T11:49:39;98174.38;;;7.25;69.90
35694;BME280;21812;55.536;37.664;2024-03-23T11:52:08;98113.16;;;7.07;71.36
35694;BME280;21812;55.536;37.664;2024-03-23T11:54:34;98178.56;;;7.79;69.51
35694;BME280;21812;55.536;37.664;2024-03-23T11:57:00;98170.13;;;7.96;69.53
35694;BME280;21812;55.536;37.664;2024-03-23T11:59:39;98162.97;;;7.96;67.94
35694;BME280;21812;55.536;37.664;2024-03-23T12:02:13;98160.94;;;7.85;68.27
35694;BME280;21812;55.536;37.664;2024-03-23T12:04:42;98172.81;;;7.82;68.55
35694;BME280;21812;55.536;37.664;2024-03-23T12:07:18;98166.31;;;7.65;68.27
35694;BME280;21812;55.536;37.664;2024-03-23T12:10:02;98139.03;;;7.44;69.08
35694;BME280;21812;55.536;37.664;2024-03-23T12:12:30;98166.34;;;7.52;68.79
35694;BME280;21812;55.536;37.664;2024-03-23T12:15:06;98167.59;;;7.56;69.30
35694;BME280;21812;55.536;37.664;2024-03-23T12:17:34;98167.78;;;7.61;68.86
35694;BME280;21812;55.536;37.664;2024-03-23T12:20:03;98174.53;;;7.63;68.43
35694;BME280;21812;55.536;37.664;2024-03-23T12:22:31;98167.59;;;7.49;70.22
35694;BME280;21812;55.536;37.664;2024-03-23T12:24:56;98163.13;;;7.36;69.80
35694;BME280;21812;55.536;37.664;2024-03-23T12:27:23;98173.78;;;7.16;69.83
35694;BME280;21812;55.536;37.664;2024-03-23T12:29:48;98172.34;;;7.00;71.33
35694;BME280;21812;55.536;37.664;2024-03-23T12:32:14;98176.22;;;7.11;71.32
35694;BME280;21812;55.536;37.664;2024-03-23T12:34:40;98162.75;;;7.26;70.84
35694;BME280;21812;55.536;37.664;2024-03-23T12:37:07;98156.19;;;7.35;71.00
35694;BME280;21812;55.536;37.664;2024-03-23T12:39:33;98158.03;;;7.41;71.42
35694;BME280;21812;55.536;37.664;2024-03-23T12:42:01;98166.63;;;7.17;70.30
35694;BME280;21812;55.536;37.664;2024-03-23T12:44:28;98158.28;;;7.07;73.18
35694;BME280;21812;55.536;37.664;2024-03-23T12:46:54;98170.53;;;7.01;71.86
35694;BME280;21812;55.536;37.664;2024-03-23T12:49:20;98171.34;;;7.15;72.50
35694;BME280;21812;55.536;37.664;2024-03-23T12:51:53;98140.72;;;6.92;72.51
35694;BME280;21812;55.536;37.664;2024-03-23T12:54:20;98166.03;;;6.95;73.75
35694;BME280;21812;55.536;37.664;2024-03-23T12:56:46;98177.88;;;6.99;73.94
35694;BME280;21812;55.536;37.664;2024-03-23T12:59:11;98160.72;;;7.01;74.19
35694;BME280;21812;55.536;37.664;2024-03-23T13:01:38;98161.94;;;7.05;72.99
35694;BME280;21812;55.536;37.664;2024-03-23T13:04:04;98159.50;;;7.11;72.80
35694;BME280;21812;55.536;37.664;2024-03-23T13:06:30;98169.31;;;7.10;72.01
35694;BME280;21812;55.536;37.664;2024-03-23T13:09:03;98164.00;;;6.83;72.43
35694;BME280;21812;55.536;37.664;2024-03-23T13:11:30;98166.03;;;6.88;73.78
35694;BME280;21812;55.536;37.664;2024-03-23T13:13:56;98165.81;;;6.83;74.67
35694;BME280;21812;55.536;37.664;2024-03-23T13:16:22;98127.47;;;6.85;75.17
35694;BME280;21812;55.536;37.664;2024-03-23T13:18:48;98147.78;;;7.38;74.13
35694;BME280;21812;55.536;37.664;2024-03-23T13:21:14;98148.06;;;7.89;73.89
35694;BME280;21812;55.536;37.664;2024-03-23T13:23:39;98156.84;;;7.89;71.73
35694;BME280;21812;55.536;37.664;2024-03-23T13:26:08;98161.81;;;7.72;71.74
35694;BME280;21812;55.536;37.664;2024-03-23T13:28:34;98154.31;;;7.56;72.06
35694;BME280;21812;55.536;37.664;2024-03-23T13:31:01;98149.56;;;7.64;72.55
35694;BME280;21812;55.536;37.664;2024-03-23T13:33:30;98154.06;;;7.64;73.30
35694;BME280;21812;55.536;37.664;2024-03-23T13:35:58;98145.91;;;7.59;72.95
35694;BME280;21812;55.536;37.664;2024-03-23T13:38:24;98154.28;;;7.69;72.83
35694;BME280;21812;55.536;37.664;2024-03-23T13:43:20;98146.38;;;7.42;71.70
35694;BME280;21812;55.536;37.664;2024-03-23T13:45:51;98139.19;;;7.50;73.37
35694;BME280;21812;55.536;37.664;2024-03-23T13:48:23;98118.81;;;7.30;72.00
35694;BME280;21812;55.536;37.664;2024-03-23T13:51:03;98115.19;;;7.18;73.50
35694;BME280;21812;55.536;37.664;2024-03-23T13:53:30;98152.50;;;7.36;73.30
35694;BME280;21812;55.536;37.664;2024-03-23T13:55:56;98139.41;;;7.48;73.96
35694;BME280;21812;55.536;37.664;2024-03-23T13:58:22;98140.75;;;7.77;72.38
35694;BME280;21812;55.536;37.664;2024-03-23T14:00:51;98149.00;;;8.08;73.06
35694;BME280;21812;55.536;37.664;2024-03-23T14:03:17;98153.19;;;8.22;70.58
35694;BME280;21812;55.536;37.664;2024-03-23T14:05:46;98137.09;;;8.17;70.52
35694;BME280;21812;55.536;37.664;2024-03-23T14:08:15;98093.38;;;7.68;69.80
35694;BME280;21812;55.536;37.664;2024-03-23T14:10:41;98138.88;;;7.85;70.56